createdAt,value
2017-06-09T00:00:05.816Z,1000.28
2017-06-09T00:01:15.858Z,1000.29
2017-06-09T00:02:26.209Z,1000.27
2017-06-09T00:03:36.563Z,1000.25
2017-06-09T00:04:46.906Z,1000.25
2017-06-09T00:05:57.256Z,1000.24
2017-06-09T00:07:07.291Z,1000.22
2017-06-09T00:08:17.399Z,1000.21
2017-06-09T00:09:27.753Z,1000.16
2017-06-09T00:10:38.111Z,1000.19
2017-06-09T00:11:48.458Z,1000.14
2017-06-09T00:12:58.209Z,1000.14
2017-06-09T00:14:07.952Z,1000.12
2017-06-09T00:15:18.332Z,1000.16
2017-06-09T00:16:28.360Z,1000.15
2017-06-09T00:17:38.411Z,1000.18
2017-06-09T00:18:48.765Z,1000.18
2017-06-09T00:19:58.811Z,1000.14
2017-06-09T00:21:09.176Z,1000.13
2017-06-09T00:22:19.564Z,1000.17
2017-06-09T00:23:29.917Z,1000.12
2017-06-09T00:24:40.278Z,1000.16
2017-06-09T00:25:50.316Z,1000.16
2017-06-09T00:27:00.660Z,1000.18
2017-06-09T00:28:11.063Z,1000.14
2017-06-09T00:29:21.464Z,1000.16
2017-06-09T00:30:31.813Z,1000.13
2017-06-09T00:31:41.855Z,1000.14
2017-06-09T00:32:52.200Z,1000.1
2017-06-09T00:34:02.536Z,1000.11
2017-06-09T00:35:12.595Z,1000.11
2017-06-09T00:36:22.937Z,1000.1
2017-06-09T00:37:33.005Z,1000.12
2017-06-09T00:38:43.388Z,1000.12
2017-06-09T00:39:53.780Z,1000.15
2017-06-09T00:41:04.120Z,1000.18
2017-06-09T00:42:14.460Z,1000.14
2017-06-09T00:43:24.789Z,1000.17
2017-06-09T00:44:34.531Z,1000.19
2017-06-09T00:45:44.924Z,1000.15
2017-06-09T00:46:55.316Z,1000.14
2017-06-09T00:48:05.663Z,1000.15
2017-06-09T00:49:16.016Z,1000.14
2017-06-09T00:50:26.364Z,1000.12
2017-06-09T00:51:36.720Z,1000.15
2017-06-09T00:52:46.766Z,1000.17
2017-06-09T00:53:56.807Z,1000.16
2017-06-09T00:55:06.865Z,1000.09
2017-06-09T00:56:17.216Z,1000.09
2017-06-09T00:57:27.574Z,1000.08
2017-06-09T00:58:37.911Z,1000.04
2017-06-09T00:59:48.277Z,1000.04
2017-06-09T01:00:58.326Z,1000.03
2017-06-09T01:02:08.684Z,1000.05
2017-06-09T01:03:19.169Z,1000.02
2017-06-09T01:04:29.202Z,1000.02
2017-06-09T01:05:38.919Z,1000.03
2017-06-09T01:06:49.272Z,1000.04
2017-06-09T01:07:59.314Z,1000.08
2017-06-09T01:09:09.402Z,1000.04
2017-06-09T01:10:19.745Z,1000.01
2017-06-09T01:11:30.093Z,999.99
2017-06-09T01:12:40.473Z,1000.02
2017-06-09T01:13:50.821Z,1000.02
2017-06-09T01:15:01.220Z,1000
2017-06-09T01:16:11.586Z,999.97
2017-06-09T01:17:21.937Z,999.98
2017-06-09T01:18:32.296Z,999.95
2017-06-09T01:19:42.645Z,999.95
2017-06-09T01:20:52.992Z,999.93
2017-06-09T01:22:03.027Z,999.95
2017-06-09T01:23:13.374Z,999.96
2017-06-09T01:24:23.418Z,999.95
2017-06-09T01:25:33.753Z,999.9
2017-06-09T01:26:44.113Z,999.97
2017-06-09T01:27:54.450Z,999.95
2017-06-09T01:29:04.493Z,999.96
2017-06-09T01:30:14.827Z,999.92
2017-06-09T01:31:25.169Z,999.91
2017-06-09T01:32:35.262Z,999.91
2017-06-09T01:33:45.612Z,999.92
2017-06-09T01:34:55.945Z,999.89
2017-06-09T01:36:06.296Z,999.89
2017-06-09T01:37:16.637Z,999.83
2017-06-09T01:38:27.025Z,999.87
2017-06-09T01:39:37.057Z,999.84
2017-06-09T01:40:47.445Z,999.85
2017-06-09T01:41:57.805Z,999.85
2017-06-09T01:43:08.143Z,999.82
2017-06-09T01:44:18.539Z,999.82
2017-06-09T01:45:28.878Z,999.76
2017-06-09T01:46:39.235Z,999.8
2017-06-09T01:47:49.590Z,999.82
2017-06-09T01:48:59.935Z,999.77
2017-06-09T01:50:10.281Z,999.8
2017-06-09T01:51:20.631Z,999.77
2017-06-09T01:52:31.085Z,999.82
2017-06-09T01:53:41.424Z,999.81
2017-06-09T01:54:51.782Z,999.83
2017-06-09T01:56:02.161Z,999.82
2017-06-09T01:57:12.506Z,999.81
2017-06-09T01:58:22.549Z,999.77
2017-06-09T01:59:32.891Z,999.77
2017-06-09T02:00:43.229Z,999.79
2017-06-09T02:01:53.623Z,999.8
2017-06-09T02:03:03.975Z,999.76
2017-06-09T02:04:14.009Z,999.74
2017-06-09T02:05:24.050Z,999.79
2017-06-09T02:06:34.092Z,999.77
2017-06-09T02:07:44.128Z,999.79
2017-06-09T02:08:54.455Z,999.73
2017-06-09T02:10:04.490Z,999.7
2017-06-09T02:11:14.539Z,999.76
2017-06-09T02:12:24.565Z,999.75
2017-06-09T02:13:34.974Z,999.74
2017-06-09T02:14:44.377Z,999.71
2017-06-09T02:15:54.441Z,999.74
2017-06-09T02:17:04.787Z,999.72
2017-06-09T02:18:15.137Z,999.71
2017-06-09T02:19:25.176Z,999.72
2017-06-09T02:20:35.199Z,999.7
2017-06-09T02:21:45.534Z,999.75
2017-06-09T02:22:55.878Z,999.74
2017-06-09T02:24:05.912Z,999.75
2017-06-09T02:25:16.303Z,999.74
2017-06-09T02:26:26.630Z,999.74
2017-06-09T02:27:36.974Z,999.71
2017-06-09T02:28:47.008Z,999.7
2017-06-09T02:29:57.369Z,999.68
2017-06-09T02:31:07.714Z,999.72
2017-06-09T02:32:17.741Z,999.7
2017-06-09T02:33:27.790Z,999.74
2017-06-09T02:34:38.149Z,999.76
2017-06-09T02:35:48.509Z,999.75
2017-06-09T02:36:58.293Z,999.78
2017-06-09T02:38:08.629Z,999.76
2017-06-09T02:39:18.986Z,999.72
2017-06-09T02:40:29.339Z,999.78
2017-06-09T02:41:39.697Z,999.76
2017-06-09T02:42:50.109Z,999.77
2017-06-09T02:44:00.463Z,999.72
2017-06-09T02:45:10.503Z,999.73
2017-06-09T02:46:20.844Z,999.73
2017-06-09T02:47:31.187Z,999.78
2017-06-09T02:48:41.579Z,999.79
2017-06-09T02:49:51.918Z,999.82
2017-06-09T02:51:02.293Z,999.84
2017-06-09T02:52:12.644Z,999.84
2017-06-09T02:53:22.664Z,999.8
2017-06-09T02:54:33.007Z,999.84
2017-06-09T02:55:43.359Z,999.84
2017-06-09T02:56:53.388Z,999.84
2017-06-09T02:58:03.735Z,999.91
2017-06-09T02:59:14.091Z,999.93
2017-06-09T03:00:24.477Z,999.89
2017-06-09T03:01:34.820Z,999.95
2017-06-09T03:33:01.181Z,1000.1
2017-06-09T03:34:11.527Z,1000.12
2017-06-09T03:35:21.561Z,1000.18
2017-06-09T03:36:31.590Z,1000.23
2017-06-09T03:37:41.934Z,1000.23
2017-06-09T03:38:52.332Z,1000.24
2017-06-09T03:40:02.672Z,1000.2
2017-06-09T03:41:12.390Z,1000.19
2017-06-09T03:42:22.431Z,1000.23
2017-06-09T03:43:32.788Z,1000.22
2017-06-09T03:44:43.179Z,1000.22
2017-06-09T03:45:52.576Z,1000.23
2017-06-09T03:47:02.604Z,1000.24
2017-06-09T03:48:12.963Z,1000.29
2017-06-09T03:49:23.357Z,1000.36
2017-06-09T03:50:33.408Z,1000.39
2017-06-09T03:51:43.767Z,1000.36
2017-06-09T03:52:54.119Z,1000.4
2017-06-09T03:54:04.458Z,1000.41
2017-06-09T03:55:14.855Z,1000.46
2017-06-09T03:56:25.259Z,1000.4
2017-06-09T03:57:35.610Z,1000.39
2017-06-09T03:58:45.967Z,1000.45
2017-06-09T03:59:56.328Z,1000.47
2017-06-09T04:01:06.365Z,1000.45
2017-06-09T04:02:16.709Z,1000.48
2017-06-09T04:03:26.737Z,1000.5
2017-06-09T04:04:37.096Z,1000.5
2017-06-09T04:05:47.130Z,1000.47
2017-06-09T04:06:57.509Z,1000.49
2017-06-09T04:08:07.592Z,1000.52
2017-06-09T04:09:17.937Z,1000.5
2017-06-09T04:10:28.272Z,1000.5
2017-06-09T04:11:38.005Z,1000.51
2017-06-09T04:12:47.727Z,1000.5
2017-06-09T04:13:58.065Z,1000.49
2017-06-09T04:15:08.111Z,1000.5
2017-06-09T04:16:18.149Z,1000.53
2017-06-09T04:17:28.497Z,1000.62
2017-06-09T04:18:38.844Z,1001.01
2017-06-09T04:19:48.929Z,1001.28
2017-06-09T04:20:58.671Z,1001.46
2017-06-09T04:22:09.028Z,1001.51
2017-06-09T04:23:19.382Z,1001.41
2017-06-09T04:24:29.735Z,1001.33
2017-06-09T04:25:39.764Z,1001.45
2017-06-09T04:26:49.789Z,1001.78
2017-06-09T04:28:00.128Z,1001.66
2017-06-09T04:29:10.470Z,1001.43
2017-06-09T04:30:20.814Z,1001.38
2017-06-09T04:31:30.911Z,1001.51
2017-06-09T04:32:41.259Z,1001.56
2017-06-09T04:33:50.974Z,1001.52
2017-06-09T04:35:01.322Z,1001.44
2017-06-09T04:36:11.661Z,1001.4
2017-06-09T04:37:22.020Z,1001.15
2017-06-09T04:38:32.366Z,1001.07
2017-06-09T04:39:42.720Z,1001.11
2017-06-09T04:40:52.755Z,1001.06
2017-06-09T04:42:02.792Z,1000.99
2017-06-09T04:43:12.836Z,1000.94
2017-06-09T04:44:23.201Z,1000.98
2017-06-09T04:45:33.231Z,1000.95
2017-06-09T04:46:43.590Z,1000.97
2017-06-09T04:47:53.946Z,1000.99
2017-06-09T04:49:04.289Z,1000.99
2017-06-09T04:50:14.652Z,1000.98
2017-06-09T04:51:24.697Z,1001.1
2017-06-09T04:52:35.052Z,1001.1
2017-06-09T04:53:45.099Z,1001.16
2017-06-09T04:54:55.181Z,1001.2
2017-06-09T04:56:05.550Z,1001.18
2017-06-09T04:57:15.645Z,1001.17
2017-06-09T04:58:25.682Z,1001.25
2017-06-09T04:59:36.052Z,1001.26
2017-06-09T05:00:46.471Z,1001.25
2017-06-09T05:01:56.517Z,1001.26
2017-06-09T05:03:06.261Z,1001.26
2017-06-09T05:04:16.615Z,1001.25
2017-06-09T05:05:26.647Z,1001.3
2017-06-09T05:06:36.760Z,1001.25
2017-06-09T05:07:46.188Z,1001.04
2017-06-09T05:08:55.931Z,1000.92
2017-06-09T05:10:05.970Z,1000.86
2017-06-09T05:11:16.317Z,1000.9
2017-06-09T05:12:26.528Z,1000.76
2017-06-09T05:13:36.560Z,1000.76
2017-06-09T05:14:46.316Z,1000.75
2017-06-09T05:15:56.357Z,1000.76
2017-06-09T05:17:06.722Z,1000.79
2017-06-09T05:18:17.123Z,1000.77
2017-06-09T05:19:27.160Z,1000.8
2017-06-09T05:20:37.551Z,1000.8
2017-06-09T05:21:47.893Z,1000.89
2017-06-09T05:22:58.270Z,1000.88
2017-06-09T05:24:08.661Z,1000.9
2017-06-09T05:25:19.008Z,1000.91
2017-06-09T05:26:29.048Z,1000.9
2017-06-09T05:27:39.106Z,1000.91
2017-06-09T05:28:49.163Z,1000.9
2017-06-09T05:29:59.270Z,1000.88
2017-06-09T05:31:09.338Z,1000.9
2017-06-09T05:32:19.707Z,1000.89
2017-06-09T05:33:30.056Z,1000.92
2017-06-09T05:34:40.102Z,1000.91
2017-06-09T05:35:49.561Z,1000.92
2017-06-09T05:36:59.311Z,1000.93
2017-06-09T05:38:09.036Z,1000.94
2017-06-09T05:39:19.084Z,1000.91
2017-06-09T05:40:29.116Z,1000.91
2017-06-09T05:41:39.206Z,1000.85
2017-06-09T05:42:49.253Z,1000.73
2017-06-09T05:43:59.616Z,1000.6
2017-06-09T05:45:09.670Z,1000.64
2017-06-09T05:46:20.002Z,1000.65
2017-06-09T05:47:29.733Z,1000.58
2017-06-09T05:48:40.089Z,1000.75
2017-06-09T05:49:50.439Z,1000.68
2017-06-09T05:51:00.168Z,1000.75
2017-06-09T05:52:10.528Z,1000.79
2017-06-09T05:53:20.889Z,1000.74
2017-06-09T05:54:31.296Z,1000.8
2017-06-09T05:55:41.655Z,1000.76
2017-06-09T05:56:51.697Z,1000.73
2017-06-09T05:58:01.742Z,1000.79
2017-06-09T05:59:12.147Z,1000.66
2017-06-09T06:00:22.200Z,1000.6
2017-06-09T06:01:32.568Z,1000.65
2017-06-09T06:02:42.915Z,1000.61
2017-06-09T06:03:52.963Z,1000.68
2017-06-09T06:05:02.683Z,1000.77
2017-06-09T06:06:13.081Z,1000.8
2017-06-09T06:07:23.114Z,1000.81
2017-06-09T06:08:33.474Z,1000.82
2017-06-09T06:09:43.516Z,1000.81
2017-06-09T06:10:53.930Z,1000.86
2017-06-09T06:12:03.983Z,1000.79
2017-06-09T06:13:14.338Z,1001
2017-06-09T06:14:24.686Z,1001.12
2017-06-09T06:15:34.736Z,1001.34
2017-06-09T06:16:45.141Z,1001.23
2017-06-09T06:17:55.502Z,1000.99
2017-06-09T06:19:05.870Z,1000.81
2017-06-09T06:20:15.918Z,1000.83
2017-06-09T06:21:25.967Z,1000.9
2017-06-09T06:22:36.312Z,1000.97
2017-06-09T06:23:46.664Z,1000.89
2017-06-09T06:24:57.022Z,1000.9
2017-06-09T06:26:07.398Z,1000.93
2017-06-09T06:27:17.760Z,1000.85
2017-06-09T06:28:27.487Z,1000.76
2017-06-09T06:29:37.862Z,1000.76
2017-06-09T06:30:48.209Z,1000.76
2017-06-09T06:31:58.253Z,1000.7
2017-06-09T06:33:08.621Z,1000.64
2017-06-09T06:34:19.022Z,1000.65
2017-06-09T06:35:29.050Z,1000.6
2017-06-09T06:36:39.090Z,1000.57
2017-06-09T06:37:49.152Z,1000.5
2017-06-09T06:38:58.877Z,1000.48
2017-06-09T06:40:08.968Z,1000.45
2017-06-09T06:41:19.328Z,1000.41
2017-06-09T06:42:29.694Z,1000.48
2017-06-09T06:43:40.046Z,1000.46
2017-06-09T06:44:50.423Z,1000.42
2017-06-09T06:46:00.515Z,1000.41
2017-06-09T06:47:10.886Z,1000.37
2017-06-09T06:48:20.934Z,1000.4
2017-06-09T06:49:31.287Z,1000.36
2017-06-09T06:50:41.332Z,1000.35
2017-06-09T06:51:51.749Z,1000.32
2017-06-09T06:53:02.105Z,1000.3
2017-06-09T06:54:12.145Z,1000.29
2017-06-09T06:55:22.495Z,1000.24
2017-06-09T06:56:32.846Z,1000.24
2017-06-09T06:57:43.257Z,1000.24
2017-06-09T06:58:53.616Z,1000.26
2017-06-09T07:00:03.971Z,1000.24
2017-06-09T07:01:14.327Z,1000.24
2017-06-09T07:02:24.378Z,1000.22
2017-06-09T07:03:34.731Z,1000.17
2017-06-09T07:04:44.463Z,1000.17
2017-06-09T07:05:54.827Z,1000.12
2017-06-09T07:07:05.188Z,1000.08
2017-06-09T07:08:15.563Z,1000.06
2017-06-09T07:09:25.955Z,1000.01
2017-06-09T07:10:36.304Z,1000
2017-06-09T07:11:46.397Z,999.98
2017-06-09T07:12:56.137Z,999.97
2017-06-09T07:14:06.183Z,999.97
2017-06-09T07:15:16.214Z,999.96
2017-06-09T07:16:26.372Z,999.93
2017-06-09T07:17:36.739Z,999.91
2017-06-09T07:18:46.779Z,999.92
2017-06-09T07:19:56.509Z,999.96
2017-06-09T07:21:06.854Z,999.93
2017-06-09T07:22:16.940Z,999.9
2017-06-09T07:23:27.046Z,999.86
2017-06-09T07:24:37.092Z,999.83
2017-06-09T07:25:47.450Z,999.83
2017-06-09T07:26:57.532Z,999.78
2017-06-09T07:28:07.613Z,999.83
2017-06-09T07:29:17.986Z,999.8
2017-06-09T07:30:28.038Z,999.8
2017-06-09T07:31:38.400Z,999.82
2017-06-09T07:32:48.489Z,999.81
2017-06-09T07:33:58.881Z,999.8
2017-06-09T07:35:09.224Z,999.78
2017-06-09T07:36:18.952Z,999.75
2017-06-09T07:37:28.995Z,999.76
2017-06-09T07:38:39.391Z,999.73
2017-06-09T07:39:49.472Z,999.77
2017-06-09T07:40:59.518Z,999.71
2017-06-09T07:42:09.877Z,999.65
2017-06-09T07:43:20.231Z,999.66
2017-06-09T07:44:30.638Z,999.64
2017-06-09T07:45:41.002Z,999.63
2017-06-09T07:46:51.357Z,999.61
2017-06-09T07:48:01.070Z,999.63
2017-06-09T07:49:11.420Z,999.62
2017-06-09T07:50:21.513Z,999.63
2017-06-09T07:51:31.250Z,999.59
2017-06-09T07:52:40.986Z,999.6
2017-06-09T07:53:51.334Z,999.62
2017-06-09T07:55:01.357Z,999.57
2017-06-09T07:56:11.756Z,999.57
2017-06-09T07:57:22.105Z,999.54
2017-06-09T07:58:32.461Z,999.58
2017-06-09T07:59:42.806Z,999.6
2017-06-09T08:00:52.549Z,999.61
2017-06-09T08:02:02.891Z,999.59
2017-06-09T08:03:12.922Z,999.59
2017-06-09T08:04:22.951Z,999.52
2017-06-09T08:05:33.314Z,999.51
2017-06-09T08:06:43.343Z,999.51
2017-06-09T08:07:53.690Z,999.56
2017-06-09T08:09:04.058Z,999.52
2017-06-09T08:10:14.408Z,999.53
2017-06-09T08:11:24.775Z,999.53
2017-06-09T08:12:34.823Z,999.48
2017-06-09T08:13:45.479Z,999.55
2017-06-09T08:14:55.835Z,999.57
2017-06-09T08:16:06.182Z,999.58
2017-06-09T08:17:16.234Z,999.58
2017-06-09T08:18:26.605Z,999.61
2017-06-09T08:19:37.027Z,999.57
2017-06-09T08:20:47.379Z,999.6
2017-06-09T08:21:57.736Z,999.64
2017-06-09T08:23:08.096Z,999.56
2017-06-09T08:24:18.439Z,999.49
2017-06-09T08:25:28.786Z,999.56
2017-06-09T08:26:39.128Z,999.56
2017-06-09T08:27:49.168Z,999.55
2017-06-09T08:28:59.505Z,999.49
2017-06-09T08:30:09.873Z,999.53
2017-06-09T08:31:20.278Z,999.52
2017-06-09T08:32:30.646Z,999.49
2017-06-09T08:33:41.014Z,999.5
2017-06-09T08:34:51.353Z,999.49
2017-06-09T08:36:01.401Z,999.51
2017-06-09T08:37:11.502Z,999.51
2017-06-09T08:38:21.544Z,999.55
2017-06-09T08:39:30.967Z,999.52
2017-06-09T08:40:41.328Z,999.58
2017-06-09T08:41:51.677Z,999.54
2017-06-09T08:43:02.047Z,999.52
2017-06-09T08:44:11.789Z,999.53
2017-06-09T08:45:22.141Z,999.49
2017-06-09T08:46:32.502Z,999.54
2017-06-09T08:47:42.859Z,999.52
2017-06-09T08:48:53.279Z,999.45
2017-06-09T08:50:03.317Z,999.43
2017-06-09T08:51:13.362Z,999.45
2017-06-09T08:52:23.746Z,999.4
2017-06-09T08:53:34.113Z,999.4
2017-06-09T08:54:44.529Z,999.42
2017-06-09T08:55:54.566Z,999.42
2017-06-09T08:57:04.922Z,999.44
2017-06-09T08:58:15.266Z,999.41
2017-06-09T08:59:25.302Z,999.39
2017-06-09T09:00:35.836Z,999.37
2017-06-09T09:01:46.206Z,999.32
2017-06-09T09:02:55.947Z,999.29
2017-06-09T09:04:06.300Z,999.33
2017-06-09T09:05:16.355Z,999.21
2017-06-09T09:06:26.761Z,999.28
2017-06-09T09:07:37.118Z,999.31
2017-06-09T09:08:47.473Z,999.27
2017-06-09T09:09:57.840Z,999.28
2017-06-09T09:11:08.195Z,999.06
2017-06-09T09:12:18.576Z,999.24
2017-06-09T09:13:28.943Z,999.18
2017-06-09T09:14:39.301Z,999.12
2017-06-09T09:15:49.653Z,999.14
2017-06-09T09:17:00.006Z,999.14
2017-06-09T09:18:10.360Z,999.15
2017-06-09T09:19:20.731Z,999.14
2017-06-09T09:20:31.086Z,999.09
2017-06-09T09:21:41.450Z,999.01
2017-06-09T09:22:51.824Z,999.05
2017-06-09T09:24:02.265Z,999.11
2017-06-09T09:25:12.322Z,999.05
2017-06-09T09:26:22.368Z,999.11
2017-06-09T09:27:32.820Z,999.11
2017-06-09T09:28:43.193Z,999.11
2017-06-09T09:29:53.640Z,999.07
2017-06-09T09:31:03.985Z,999.09
2017-06-09T09:32:14.359Z,999.12
2017-06-09T09:33:24.717Z,999.15
2017-06-09T09:34:34.760Z,999.11
2017-06-09T09:35:45.166Z,999.13
2017-06-09T09:36:55.212Z,999.15
2017-06-09T09:38:05.565Z,999.19
2017-06-09T09:39:15.962Z,999.14
2017-06-09T09:40:26.044Z,999.21
2017-06-09T09:41:35.824Z,999.19
2017-06-09T09:42:46.161Z,999.25
2017-06-09T09:43:56.508Z,999.22
2017-06-09T09:45:06.557Z,999.17
2017-06-09T09:46:16.909Z,999.1
2017-06-09T09:47:27.289Z,999.1
2017-06-09T09:48:37.651Z,999.08
2017-06-09T09:49:47.691Z,999.1
2017-06-09T09:50:57.740Z,999.08
2017-06-09T09:52:07.797Z,999.13
2017-06-09T09:53:18.194Z,999.14
2017-06-09T09:54:28.273Z,999.12
2017-06-09T09:55:38.325Z,999.07
2017-06-09T09:56:48.390Z,999.06
2017-06-09T09:57:58.746Z,999.05
2017-06-09T09:59:09.171Z,998.93
2017-06-09T10:00:19.206Z,998.99
2017-06-09T10:01:29.581Z,998.93
2017-06-09T10:02:39.928Z,998.96
2017-06-09T10:03:50.293Z,998.93
2017-06-09T10:05:00.394Z,998.91
2017-06-09T10:06:10.441Z,998.95
2017-06-09T10:07:20.809Z,998.94
2017-06-09T10:08:30.841Z,998.86
2017-06-09T10:09:41.195Z,998.85
2017-06-09T10:10:51.002Z,998.86
2017-06-09T10:12:01.066Z,998.81
2017-06-09T10:13:11.469Z,998.85
2017-06-09T10:14:21.510Z,998.84
2017-06-09T10:15:31.859Z,998.81
2017-06-09T10:16:41.629Z,998.8
2017-06-09T10:17:51.663Z,998.8
2017-06-09T10:19:02.016Z,998.84
2017-06-09T10:20:12.368Z,998.82
2017-06-09T10:21:22.416Z,998.72
2017-06-09T10:22:32.772Z,998.78
2017-06-09T10:23:42.492Z,998.76
2017-06-09T10:24:52.541Z,998.7
2017-06-09T10:26:02.611Z,998.68
2017-06-09T10:27:12.969Z,998.62
2017-06-09T10:28:23.136Z,998.66
2017-06-09T10:29:33.168Z,998.69
2017-06-09T10:30:43.531Z,998.71
2017-06-09T10:31:53.568Z,998.6
2017-06-09T10:33:03.628Z,998.6
2017-06-09T10:34:14.037Z,998.59
2017-06-09T10:35:24.109Z,998.52
2017-06-09T10:36:34.459Z,998.56
2017-06-09T10:37:44.810Z,998.57
2017-06-09T10:38:54.849Z,998.49
2017-06-09T10:40:05.273Z,998.51
2017-06-09T10:41:15.645Z,998.45
2017-06-09T10:42:26.000Z,998.52
2017-06-09T10:43:36.567Z,998.56
2017-06-09T10:44:46.840Z,998.49
2017-06-09T10:45:57.247Z,998.43
2017-06-09T10:47:07.587Z,998.34
2017-06-09T10:48:17.934Z,998.46
2017-06-09T10:49:28.291Z,998.53
2017-06-09T10:50:38.662Z,998.49
2017-06-09T10:51:49.090Z,998.48
2017-06-09T10:52:59.456Z,998.5
2017-06-09T10:54:09.504Z,998.51
2017-06-09T10:55:19.867Z,998.49
2017-06-09T10:56:30.238Z,998.46
2017-06-09T10:57:40.636Z,998.51
2017-06-09T10:58:50.999Z,998.47
2017-06-09T11:00:01.349Z,998.56
2017-06-09T11:01:11.706Z,998.46
2017-06-09T11:02:22.047Z,998.46
2017-06-09T11:03:32.133Z,998.47
2017-06-09T11:04:42.223Z,998.44
2017-06-09T11:05:52.603Z,998.44
2017-06-09T11:07:02.334Z,998.47
2017-06-09T11:08:12.391Z,998.46
2017-06-09T11:09:22.790Z,998.46
2017-06-09T11:10:33.163Z,998.47
2017-06-09T11:11:43.553Z,998.39
2017-06-09T11:12:53.928Z,998.35
2017-06-09T11:14:03.662Z,998.26
2017-06-09T11:15:14.141Z,998.37
2017-06-09T11:16:24.514Z,998.29
2017-06-09T11:17:34.550Z,998.32
2017-06-09T11:18:44.947Z,998.3
2017-06-09T11:19:54.987Z,998.23
2017-06-09T11:21:05.362Z,998.2
2017-06-09T11:22:15.722Z,998.19
2017-06-09T11:23:25.451Z,998.14
2017-06-09T11:24:35.822Z,998.12
2017-06-09T11:25:46.194Z,998.15
2017-06-09T11:26:56.064Z,998.15
2017-06-09T11:28:06.425Z,998.12
2017-06-09T11:29:16.778Z,998.16
2017-06-09T11:30:27.150Z,998.14
2017-06-09T11:31:37.198Z,998.13
2017-06-09T11:32:47.618Z,998.12
2017-06-09T11:33:57.655Z,998.09
2017-06-09T11:35:08.009Z,998.1
2017-06-09T11:36:18.358Z,998.16
2017-06-09T11:37:28.402Z,998.06
2017-06-09T11:38:38.809Z,997.99
2017-06-09T11:39:49.156Z,998.04
2017-06-09T11:40:59.503Z,998.01
2017-06-09T11:42:09.528Z,997.89
2017-06-09T11:43:19.581Z,997.89
2017-06-09T11:44:29.940Z,997.8
2017-06-09T11:45:40.318Z,997.82
2017-06-09T11:46:50.683Z,997.85
2017-06-09T11:48:01.024Z,997.79
2017-06-09T11:49:11.403Z,997.86
2017-06-09T11:50:21.812Z,997.76
2017-06-09T11:51:32.200Z,997.75
2017-06-09T11:52:42.545Z,997.69
2017-06-09T11:53:52.581Z,997.66
2017-06-09T11:55:02.964Z,997.68
2017-06-09T11:56:13.049Z,997.67
2017-06-09T11:57:23.096Z,997.62
2017-06-09T11:58:33.152Z,997.59
2017-06-09T11:59:43.575Z,997.56
2017-06-09T12:00:53.927Z,997.56
2017-06-09T12:02:04.304Z,997.48
2017-06-09T12:03:14.035Z,997.5
2017-06-09T12:04:24.397Z,997.5
2017-06-09T12:05:34.753Z,997.43
2017-06-09T12:06:44.781Z,997.4
2017-06-09T12:07:54.558Z,997.45
2017-06-09T12:09:04.616Z,997.34
2017-06-09T12:10:14.966Z,997.41
2017-06-09T12:11:25.327Z,997.38
2017-06-09T12:12:35.365Z,997.4
2017-06-09T12:13:45.441Z,997.33
2017-06-09T12:14:55.793Z,997.34
2017-06-09T12:16:06.159Z,997.37
2017-06-09T12:17:16.537Z,997.32
2017-06-09T12:18:26.297Z,997.37
2017-06-09T12:19:36.737Z,997.41
2017-06-09T12:20:46.811Z,997.43
2017-06-09T12:21:57.154Z,997.24
2017-06-09T12:23:07.508Z,997.39
2017-06-09T12:24:17.859Z,997.45
2017-06-09T12:25:28.248Z,997.44
2017-06-09T12:26:38.305Z,997.4
2017-06-09T12:27:48.337Z,997.43
2017-06-09T12:28:58.706Z,997.46
2017-06-09T12:30:09.057Z,997.51
2017-06-09T12:31:19.676Z,997.46
2017-06-09T12:32:30.019Z,997.42
2017-06-09T12:33:40.377Z,997.39
2017-06-09T12:34:50.733Z,997.36
2017-06-09T12:36:00.776Z,997.28
2017-06-09T12:37:11.145Z,997.18
2017-06-09T12:38:21.538Z,997.28
2017-06-09T12:39:31.889Z,997.24
2017-06-09T12:40:42.244Z,997.27
2017-06-09T12:41:52.623Z,997.29
2017-06-09T12:43:02.473Z,997.32
2017-06-09T12:44:12.525Z,997.23
2017-06-09T12:45:22.885Z,997.31
2017-06-09T12:46:32.945Z,997.22
2017-06-09T12:47:43.316Z,997.28
2017-06-09T12:48:53.404Z,997.26
2017-06-09T12:50:03.469Z,997.26
2017-06-09T12:51:13.611Z,997.21
2017-06-09T12:52:23.963Z,997.17
2017-06-09T12:53:34.302Z,997.18
2017-06-09T12:54:44.413Z,997.13
2017-06-09T12:55:54.787Z,997.14
2017-06-09T12:57:05.136Z,997.07
2017-06-09T12:58:14.574Z,997.04
2017-06-09T12:59:24.929Z,997.08
2017-06-09T13:00:35.321Z,997.05
2017-06-09T13:01:45.365Z,997.09
2017-06-09T13:02:55.747Z,997.05
2017-06-09T13:04:06.103Z,997.1
2017-06-09T13:05:16.451Z,997.04
2017-06-09T13:06:26.243Z,997.02
2017-06-09T13:07:36.319Z,997.01
2017-06-09T13:08:46.719Z,997.01
2017-06-09T13:09:57.090Z,996.95
2017-06-09T13:11:07.439Z,996.93
2017-06-09T13:12:17.825Z,996.94
2017-06-09T13:13:28.207Z,996.91
2017-06-09T13:14:38.559Z,996.9
2017-06-09T13:15:48.946Z,996.86
2017-06-09T13:16:58.996Z,996.9
2017-06-09T13:18:09.417Z,996.84
2017-06-09T13:19:19.802Z,996.91
2017-06-09T13:20:30.174Z,996.85
2017-06-09T13:21:40.235Z,996.82
2017-06-09T13:22:50.277Z,996.78
2017-06-09T13:24:00.684Z,996.71
2017-06-09T13:25:11.047Z,996.75
2017-06-09T13:26:21.415Z,996.77
2017-06-09T13:27:31.459Z,996.82
2017-06-09T13:28:41.805Z,996.73
2017-06-09T13:29:52.178Z,996.74
2017-06-09T13:31:02.521Z,996.78
2017-06-09T13:32:12.872Z,996.78
2017-06-09T13:33:23.237Z,996.78
2017-06-09T13:34:33.281Z,996.75
2017-06-09T13:35:43.337Z,996.66
2017-06-09T13:36:53.707Z,996.69
2017-06-09T13:38:03.128Z,996.66
2017-06-09T13:39:13.487Z,996.73
2017-06-09T13:40:23.832Z,996.73
2017-06-09T13:41:34.241Z,996.65
2017-06-09T13:42:44.606Z,996.65
2017-06-09T13:43:54.657Z,996.69
2017-06-09T13:45:05.061Z,996.64
2017-06-09T13:46:14.817Z,996.53
2017-06-09T13:47:25.225Z,996.55
2017-06-09T13:48:35.274Z,996.51
2017-06-09T13:49:45.305Z,996.52
2017-06-09T13:50:55.668Z,996.56
2017-06-09T13:52:06.076Z,996.53
2017-06-09T13:53:16.157Z,996.57
2017-06-09T13:54:25.880Z,996.57
2017-06-09T13:55:36.234Z,996.49
2017-06-09T13:56:46.294Z,996.58
2017-06-09T13:57:56.340Z,996.5
2017-06-09T13:59:06.452Z,996.46
2017-06-09T14:00:16.829Z,996.49
2017-06-09T14:01:26.860Z,996.49
2017-06-09T14:02:37.228Z,996.5
2017-06-09T14:03:47.578Z,996.47
2017-06-09T14:04:57.678Z,996.47
2017-06-09T14:06:08.051Z,996.43
2017-06-09T14:07:18.093Z,996.45
2017-06-09T14:08:28.447Z,996.46
2017-06-09T14:09:38.816Z,996.44
2017-06-09T14:10:49.224Z,996.47
2017-06-09T14:11:59.582Z,996.44
2017-06-09T14:13:09.927Z,996.41
2017-06-09T14:14:20.293Z,996.43
2017-06-09T14:15:30.052Z,996.42
2017-06-09T14:16:40.085Z,996.39
2017-06-09T14:17:50.140Z,996.41
2017-06-09T14:19:00.509Z,996.42
2017-06-09T14:20:09.913Z,996.36
2017-06-09T14:21:19.971Z,996.39
2017-06-09T14:22:30.330Z,996.37
2017-06-09T14:23:40.697Z,996.4
2017-06-09T14:24:51.085Z,996.37
2017-06-09T14:26:01.451Z,996.33
2017-06-09T14:27:11.830Z,996.26
2017-06-09T14:28:22.243Z,996.27
2017-06-09T14:29:32.596Z,996.3
2017-06-09T14:30:42.669Z,996.26
2017-06-09T14:31:53.136Z,996.26
2017-06-09T14:33:03.718Z,996.26
2017-06-09T14:34:14.381Z,996.22
2017-06-09T14:35:24.730Z,996.28
2017-06-09T14:36:34.782Z,996.24
2017-06-09T14:37:45.159Z,996.21
2017-06-09T14:38:55.703Z,996.11
2017-06-09T14:40:06.075Z,996.24
2017-06-09T14:41:16.439Z,996.22
2017-06-09T14:42:26.520Z,996.19
2017-06-09T14:43:36.873Z,996.22
2017-06-09T14:44:47.218Z,996.2
2017-06-09T14:45:57.582Z,996.18
2017-06-09T14:47:07.933Z,996.18
2017-06-09T14:48:18.296Z,996.16
2017-06-09T14:49:28.348Z,996.21
2017-06-09T14:50:38.402Z,996.11
2017-06-09T14:51:48.808Z,996.22
2017-06-09T14:52:59.188Z,996.15
2017-06-09T14:54:09.240Z,996.1
2017-06-09T14:55:19.295Z,996.16
2017-06-09T14:56:29.664Z,996.16
2017-06-09T14:57:39.765Z,996.17
2017-06-09T14:58:49.524Z,996.07
2017-06-09T14:59:59.908Z,996.08